sensor_id;sensor_type;location;lat;lon;timestamp;P1;durP1;ratioP1;P2;durP2;ratioP2
71298;SDS011;59083;47.974;21.722;2022-12-18T00:01:04;40.90;;;15.10;;
71298;SDS011;59083;47.974;21.722;2022-12-18T00:04:07;40.40;;;14.87;;
71298;SDS011;59083;47.974;21.722;2022-12-18T00:07:15;39.05;;;15.10;;
71298;SDS011;59083;47.974;21.722;2022-12-18T00:10:16;37.28;;;14.57;;
71298;SDS011;59083;47.974;21.722;2022-12-18T00:13:18;40.53;;;14.75;;
71298;SDS011;59083;47.974;21.722;2022-12-18T00:16:20;42.60;;;15.03;;
71298;SDS011;59083;47.974;21.722;2022-12-18T00:19:22;41.35;;;14.85;;
71298;SDS011;59083;47.974;21.722;2022-12-18T00:22:23;39.33;;;14.27;;
71298;SDS011;59083;47.974;21.722;2022-12-18T00:25:24;38.00;;;14.35;;
71298;SDS011;59083;47.974;21.722;2022-12-18T00:28:26;39.28;;;14.63;;
71298;SDS011;59083;47.974;21.722;2022-12-18T00:31:27;40.57;;;14.10;;
71298;SDS011;59083;47.974;21.722;2022-12-18T00:34:29;36.78;;;13.90;;
71298;SDS011;59083;47.974;21.722;2022-12-18T00:37:30;39.75;;;14.18;;
71298;SDS011;59083;47.974;21.722;2022-12-18T00:40:32;41.75;;;14.65;;
71298;SDS011;59083;47.974;21.722;2022-12-18T00:43:33;42.35;;;15.52;;
71298;SDS011;59083;47.974;21.722;2022-12-18T00:46:34;41.50;;;14.80;;
71298;SDS011;59083;47.974;21.722;2022-12-18T00:49:35;42.20;;;13.95;;
71298;SDS011;59083;47.974;21.722;2022-12-18T00:52:36;41.60;;;14.73;;
71298;SDS011;59083;47.974;21.722;2022-12-18T00:55:41;41.58;;;15.63;;
71298;SDS011;59083;47.974;21.722;2022-12-18T00:58:43;44.42;;;15.57;;
71298;SDS011;59083;47.974;21.722;2022-12-18T01:01:45;40.43;;;14.40;;
71298;SDS011;59083;47.974;21.722;2022-12-18T01:04:47;39.88;;;14.25;;
71298;SDS011;59083;47.974;21.722;2022-12-18T01:07:48;39.30;;;14.70;;
71298;SDS011;59083;47.974;21.722;2022-12-18T01:10:50;42.05;;;15.30;;
71298;SDS011;59083;47.974;21.722;2022-12-18T01:13:52;37.15;;;14.82;;
71298;SDS011;59083;47.974;21.722;2022-12-18T01:16:56;47.30;;;15.30;;
71298;SDS011;59083;47.974;21.722;2022-12-18T01:19:57;42.97;;;14.85;;
71298;SDS011;59083;47.974;21.722;2022-12-18T01:22:59;44.65;;;16.15;;
71298;SDS011;59083;47.974;21.722;2022-12-18T01:26:05;47.13;;;16.70;;
71298;SDS011;59083;47.974;21.722;2022-12-18T01:29:11;43.03;;;15.90;;
71298;SDS011;59083;47.974;21.722;2022-12-18T01:32:12;48.07;;;16.77;;
71298;SDS011;59083;47.974;21.722;2022-12-18T01:35:13;50.10;;;17.02;;
71298;SDS011;59083;47.974;21.722;2022-12-18T01:38:14;52.53;;;16.48;;
71298;SDS011;59083;47.974;21.722;2022-12-18T01:41:17;46.08;;;16.65;;
71298;SDS011;59083;47.974;21.722;2022-12-18T01:48:00;49.70;;;16.93;;
71298;SDS011;59083;47.974;21.722;2022-12-18T01:51:04;53.75;;;18.62;;
71298;SDS011;59083;47.974;21.722;2022-12-18T01:54:07;47.78;;;16.33;;
71298;SDS011;59083;47.974;21.722;2022-12-18T01:57:08;53.63;;;17.15;;
71298;SDS011;59083;47.974;21.722;2022-12-18T02:00:11;51.25;;;17.45;;
71298;SDS011;59083;47.974;21.722;2022-12-18T02:03:15;48.40;;;16.23;;
71298;SDS011;59083;47.974;21.722;2022-12-18T02:06:19;49.45;;;16.50;;
71298;SDS011;59083;47.974;21.722;2022-12-18T02:09:23;55.90;;;16.85;;
71298;SDS011;59083;47.974;21.722;2022-12-18T02:30:10;48.03;;;17.50;;
71298;SDS011;59083;47.974;21.722;2022-12-18T02:33:12;53.00;;;16.80;;
71298;SDS011;59083;47.974;21.722;2022-12-18T02:36:17;55.43;;;17.23;;
71298;SDS011;59083;47.974;21.722;2022-12-18T02:39:21;50.75;;;16.25;;
71298;SDS011;59083;47.974;21.722;2022-12-18T02:42:27;56.30;;;18.05;;
71298;SDS011;59083;47.974;21.722;2022-12-18T02:45:29;46.92;;;15.98;;
71298;SDS011;59083;47.974;21.722;2022-12-18T02:48:33;54.20;;;17.73;;
71298;SDS011;59083;47.974;21.722;2022-12-18T02:51:39;56.07;;;17.67;;
71298;SDS011;59083;47.974;21.722;2022-12-18T02:58:20;49.42;;;17.55;;
71298;SDS011;59083;47.974;21.722;2022-12-18T03:04:39;52.25;;;17.70;;
71298;SDS011;59083;47.974;21.722;2022-12-18T03:11:25;57.65;;;19.05;;
71298;SDS011;59083;47.974;21.722;2022-12-18T03:18:46;51.28;;;18.00;;
71298;SDS011;59083;47.974;21.722;2022-12-18T03:21:51;53.08;;;16.73;;
71298;SDS011;59083;47.974;21.722;2022-12-18T03:24:57;55.93;;;18.00;;
71298;SDS011;59083;47.974;21.722;2022-12-18T03:28:02;54.72;;;16.92;;
71298;SDS011;59083;47.974;21.722;2022-12-18T03:31:10;56.50;;;17.85;;
71298;SDS011;59083;47.974;21.722;2022-12-18T03:34:15;55.90;;;19.33;;
71298;SDS011;59083;47.974;21.722;2022-12-18T03:37:22;54.10;;;19.20;;
71298;SDS011;59083;47.974;21.722;2022-12-18T03:44:15;57.17;;;18.73;;
71298;SDS011;59083;47.974;21.722;2022-12-18T03:47:45;61.95;;;18.40;;
71298;SDS011;59083;47.974;21.722;2022-12-18T03:51:02;70.53;;;19.25;;
71298;SDS011;59083;47.974;21.722;2022-12-18T03:54:09;57.55;;;19.58;;
71298;SDS011;59083;47.974;21.722;2022-12-18T03:57:18;58.97;;;18.47;;
71298;SDS011;59083;47.974;21.722;2022-12-18T04:00:22;57.10;;;18.17;;
71298;SDS011;59083;47.974;21.722;2022-12-18T04:03:25;59.33;;;19.27;;
71298;SDS011;59083;47.974;21.722;2022-12-18T04:06:30;64.78;;;18.73;;
71298;SDS011;59083;47.974;21.722;2022-12-18T04:09:36;55.85;;;19.42;;
71298;SDS011;59083;47.974;21.722;2022-12-18T04:12:40;63.70;;;19.40;;
71298;SDS011;59083;47.974;21.722;2022-12-18T04:15:43;58.80;;;18.50;;
71298;SDS011;59083;47.974;21.722;2022-12-18T04:18:45;64.87;;;19.95;;
71298;SDS011;59083;47.974;21.722;2022-12-18T04:21:48;59.78;;;19.50;;
71298;SDS011;59083;47.974;21.722;2022-12-18T04:24:49;61.30;;;18.80;;
71298;SDS011;59083;47.974;21.722;2022-12-18T04:27:51;57.57;;;18.93;;
71298;SDS011;59083;47.974;21.722;2022-12-18T04:30:52;56.95;;;18.83;;
71298;SDS011;59083;47.974;21.722;2022-12-18T04:33:54;53.83;;;18.90;;
71298;SDS011;59083;47.974;21.722;2022-12-18T04:36:56;65.10;;;19.40;;
71298;SDS011;59083;47.974;21.722;2022-12-18T04:39:57;63.97;;;19.15;;
71298;SDS011;59083;47.974;21.722;2022-12-18T04:42:59;60.40;;;18.87;;
71298;SDS011;59083;47.974;21.722;2022-12-18T04:46:04;58.97;;;17.90;;
71298;SDS011;59083;47.974;21.722;2022-12-18T04:49:06;62.30;;;18.73;;
71298;SDS011;59083;47.974;21.722;2022-12-18T04:52:07;65.25;;;19.40;;
71298;SDS011;59083;47.974;21.722;2022-12-18T04:55:08;59.67;;;18.83;;
71298;SDS011;59083;47.974;21.722;2022-12-18T04:58:10;58.87;;;18.80;;
71298;SDS011;59083;47.974;21.722;2022-12-18T05:01:12;64.35;;;18.52;;
71298;SDS011;59083;47.974;21.722;2022-12-18T05:04:14;63.90;;;18.10;;
71298;SDS011;59083;47.974;21.722;2022-12-18T05:07:15;65.90;;;18.70;;
71298;SDS011;59083;47.974;21.722;2022-12-18T05:10:17;57.78;;;18.83;;
71298;SDS011;59083;47.974;21.722;2022-12-18T05:13:18;60.63;;;20.40;;
71298;SDS011;59083;47.974;21.722;2022-12-18T05:16:19;65.25;;;18.95;;
71298;SDS011;59083;47.974;21.722;2022-12-18T05:19:20;68.72;;;19.00;;
71298;SDS011;59083;47.974;21.722;2022-12-18T05:22:22;67.28;;;18.98;;
71298;SDS011;59083;47.974;21.722;2022-12-18T05:25:23;77.00;;;19.62;;
71298;SDS011;59083;47.974;21.722;2022-12-18T05:28:25;61.07;;;17.40;;
71298;SDS011;59083;47.974;21.722;2022-12-18T05:31:29;69.37;;;18.98;;
71298;SDS011;59083;47.974;21.722;2022-12-18T05:34:30;69.75;;;19.52;;
71298;SDS011;59083;47.974;21.722;2022-12-18T05:37:31;54.92;;;17.73;;
71298;SDS011;59083;47.974;21.722;2022-12-18T05:40:33;61.85;;;16.87;;
71298;SDS011;59083;47.974;21.722;2022-12-18T05:43:34;60.50;;;16.77;;
71298;SDS011;59083;47.974;21.722;2022-12-18T05:46:37;67.93;;;17.70;;
71298;SDS011;59083;47.974;21.722;2022-12-18T05:49:41;64.47;;;16.48;;
71298;SDS011;59083;47.974;21.722;2022-12-18T05:52:42;62.50;;;16.65;;
71298;SDS011;59083;47.974;21.722;2022-12-18T05:55:43;56.92;;;15.00;;
71298;SDS011;59083;47.974;21.722;2022-12-18T05:58:45;71.37;;;18.27;;
71298;SDS011;59083;47.974;21.722;2022-12-18T06:01:47;62.08;;;16.70;;
71298;SDS011;59083;47.974;21.722;2022-12-18T06:04:48;62.85;;;16.92;;
71298;SDS011;59083;47.974;21.722;2022-12-18T06:07:49;65.53;;;17.60;;
71298;SDS011;59083;47.974;21.722;2022-12-18T06:10:51;65.15;;;15.52;;
71298;SDS011;59083;47.974;21.722;2022-12-18T06:13:53;52.60;;;16.47;;
71298;SDS011;59083;47.974;21.722;2022-12-18T06:16:56;64.47;;;15.77;;
71298;SDS011;59083;47.974;21.722;2022-12-18T06:19:57;70.45;;;16.55;;
71298;SDS011;59083;47.974;21.722;2022-12-18T06:22:59;54.08;;;16.95;;
71298;SDS011;59083;47.974;21.722;2022-12-18T06:26:06;54.38;;;16.75;;
71298;SDS011;59083;47.974;21.722;2022-12-18T06:29:09;81.63;;;19.43;;
71298;SDS011;59083;47.974;21.722;2022-12-18T06:32:10;55.90;;;16.98;;
71298;SDS011;59083;47.974;21.722;2022-12-18T06:35:12;62.83;;;16.45;;
71298;SDS011;59083;47.974;21.722;2022-12-18T06:38:13;61.70;;;16.15;;
71298;SDS011;59083;47.974;21.722;2022-12-18T06:41:15;63.58;;;15.95;;
71298;SDS011;59083;47.974;21.722;2022-12-18T06:44:18;58.93;;;16.60;;
71298;SDS011;59083;47.974;21.722;2022-12-18T06:47:19;65.22;;;16.62;;
71298;SDS011;59083;47.974;21.722;2022-12-18T06:50:21;68.03;;;17.52;;
71298;SDS011;59083;47.974;21.722;2022-12-18T06:53:22;69.03;;;19.65;;
71298;SDS011;59083;47.974;21.722;2022-12-18T06:56:23;63.53;;;17.37;;
71298;SDS011;59083;47.974;21.722;2022-12-18T06:59:24;66.97;;;18.33;;
71298;SDS011;59083;47.974;21.722;2022-12-18T07:02:26;74.87;;;17.98;;
71298;SDS011;59083;47.974;21.722;2022-12-18T07:05:27;63.95;;;15.48;;
71298;SDS011;59083;47.974;21.722;2022-12-18T07:08:28;62.17;;;16.60;;
71298;SDS011;59083;47.974;21.722;2022-12-18T07:11:32;64.00;;;16.85;;
71298;SDS011;59083;47.974;21.722;2022-12-18T07:14:33;69.00;;;17.77;;
71298;SDS011;59083;47.974;21.722;2022-12-18T07:17:34;69.05;;;17.40;;
71298;SDS011;59083;47.974;21.722;2022-12-18T07:20:36;58.85;;;14.80;;
71298;SDS011;59083;47.974;21.722;2022-12-18T07:23:37;68.97;;;17.10;;
71298;SDS011;59083;47.974;21.722;2022-12-18T07:26:39;51.00;;;15.75;;
71298;SDS011;59083;47.974;21.722;2022-12-18T07:29:40;53.23;;;14.97;;
71298;SDS011;59083;47.974;21.722;2022-12-18T07:32:41;59.40;;;15.80;;
71298;SDS011;59083;47.974;21.722;2022-12-18T07:35:42;61.22;;;16.80;;
71298;SDS011;59083;47.974;21.722;2022-12-18T07:38:46;54.35;;;14.73;;
71298;SDS011;59083;47.974;21.722;2022-12-18T07:41:48;57.80;;;16.08;;
71298;SDS011;59083;47.974;21.722;2022-12-18T07:45:09;53.93;;;14.60;;
71298;SDS011;59083;47.974;21.722;2022-12-18T07:48:11;55.63;;;15.10;;
71298;SDS011;59083;47.974;21.722;2022-12-18T07:51:12;42.85;;;11.57;;
71298;SDS011;59083;47.974;21.722;2022-12-18T07:54:14;58.45;;;15.75;;
71298;SDS011;59083;47.974;21.722;2022-12-18T07:57:16;56.50;;;15.48;;
71298;SDS011;59083;47.974;21.722;2022-12-18T08:00:18;49.93;;;13.47;;
71298;SDS011;59083;47.974;21.722;2022-12-18T08:03:20;50.90;;;14.40;;
71298;SDS011;59083;47.974;21.722;2022-12-18T08:06:21;58.33;;;13.77;;
71298;SDS011;59083;47.974;21.722;2022-12-18T08:09:22;56.40;;;14.30;;
71298;SDS011;59083;47.974;21.722;2022-12-18T08:12:23;41.37;;;12.75;;
71298;SDS011;59083;47.974;21.722;2022-12-18T08:15:25;47.10;;;13.87;;
71298;SDS011;59083;47.974;21.722;2022-12-18T08:18:26;47.62;;;13.68;;
71298;SDS011;59083;47.974;21.722;2022-12-18T08:21:29;46.05;;;12.95;;
71298;SDS011;59083;47.974;21.722;2022-12-18T08:24:31;43.50;;;15.13;;
71298;SDS011;59083;47.974;21.722;2022-12-18T08:27:32;52.03;;;13.30;;
71298;SDS011;59083;47.974;21.722;2022-12-18T08:30:33;48.40;;;12.53;;
71298;SDS011;59083;47.974;21.722;2022-12-18T08:33:36;47.85;;;15.98;;
71298;SDS011;59083;47.974;21.722;2022-12-18T08:36:38;50.55;;;13.48;;
71298;SDS011;59083;47.974;21.722;2022-12-18T08:39:39;42.35;;;13.15;;
71298;SDS011;59083;47.974;21.722;2022-12-18T08:42:40;43.58;;;12.18;;
71298;SDS011;59083;47.974;21.722;2022-12-18T08:46:00;47.43;;;12.57;;
71298;SDS011;59083;47.974;21.722;2022-12-18T08:49:01;48.45;;;13.98;;
71298;SDS011;59083;47.974;21.722;2022-12-18T08:52:03;38.50;;;12.02;;
71298;SDS011;59083;47.974;21.722;2022-12-18T08:55:05;49.42;;;13.93;;
71298;SDS011;59083;47.974;21.722;2022-12-18T08:58:06;40.47;;;11.95;;
71298;SDS011;59083;47.974;21.722;2022-12-18T09:01:09;48.53;;;12.87;;
71298;SDS011;59083;47.974;21.722;2022-12-18T09:04:11;40.30;;;12.82;;
71298;SDS011;59083;47.974;21.722;2022-12-18T09:07:12;43.13;;;12.82;;
71298;SDS011;59083;47.974;21.722;2022-12-18T09:10:14;38.45;;;11.57;;
71298;SDS011;59083;47.974;21.722;2022-12-18T09:13:15;38.42;;;11.88;;
71298;SDS011;59083;47.974;21.722;2022-12-18T09:16:17;39.63;;;12.70;;
71298;SDS011;59083;47.974;21.722;2022-12-18T09:19:20;40.65;;;13.27;;
71298;SDS011;59083;47.974;21.722;2022-12-18T09:22:21;32.78;;;11.93;;
71298;SDS011;59083;47.974;21.722;2022-12-18T09:25:22;38.72;;;11.40;;
71298;SDS011;59083;47.974;21.722;2022-12-18T09:28:24;43.85;;;12.27;;
71298;SDS011;59083;47.974;21.722;2022-12-18T09:31:25;44.03;;;11.87;;
71298;SDS011;59083;47.974;21.722;2022-12-18T09:34:26;41.75;;;11.68;;
71298;SDS011;59083;47.974;21.722;2022-12-18T09:37:27;48.08;;;11.85;;
71298;SDS011;59083;47.974;21.722;2022-12-18T09:40:30;44.35;;;12.37;;
71298;SDS011;59083;47.974;21.722;2022-12-18T09:43:37;33.67;;;11.98;;
71298;SDS011;59083;47.974;21.722;2022-12-18T09:50:27;36.40;;;12.32;;
71298;SDS011;59083;47.974;21.722;2022-12-18T09:53:40;37.35;;;11.95;;
71298;SDS011;59083;47.974;21.722;2022-12-18T09:56:47;39.90;;;11.45;;
71298;SDS011;59083;47.974;21.722;2022-12-18T09:59:50;39.47;;;11.27;;
71298;SDS011;59083;47.974;21.722;2022-12-18T10:02:59;42.87;;;12.97;;
71298;SDS011;59083;47.974;21.722;2022-12-18T10:06:10;49.13;;;12.05;;
71298;SDS011;59083;47.974;21.722;2022-12-18T10:15:55;43.78;;;13.38;;
71298;SDS011;59083;47.974;21.722;2022-12-18T10:19:23;48.77;;;13.17;;
71298;SDS011;59083;47.974;21.722;2022-12-18T10:29:11;38.80;;;12.20;;
71298;SDS011;59083;47.974;21.722;2022-12-18T10:32:28;43.87;;;12.02;;
71298;SDS011;59083;47.974;21.722;2022-12-18T10:35:31;39.87;;;12.13;;
71298;SDS011;59083;47.974;21.722;2022-12-18T10:38:32;40.55;;;12.63;;
71298;SDS011;59083;47.974;21.722;2022-12-18T10:41:33;38.90;;;12.30;;
71298;SDS011;59083;47.974;21.722;2022-12-18T10:44:35;38.50;;;12.05;;
71298;SDS011;59083;47.974;21.722;2022-12-18T10:47:40;39.13;;;12.50;;
71298;SDS011;59083;47.974;21.722;2022-12-18T10:50:45;37.93;;;11.10;;
71298;SDS011;59083;47.974;21.722;2022-12-18T10:53:53;42.30;;;12.93;;
71298;SDS011;59083;47.974;21.722;2022-12-18T11:00:38;37.25;;;12.05;;
71298;SDS011;59083;47.974;21.722;2022-12-18T11:07:09;39.13;;;11.03;;
71298;SDS011;59083;47.974;21.722;2022-12-18T11:10:15;34.35;;;11.40;;
71298;SDS011;59083;47.974;21.722;2022-12-18T11:13:21;41.42;;;12.82;;
71298;SDS011;59083;47.974;21.722;2022-12-18T11:16:25;44.78;;;14.32;;
71298;SDS011;59083;47.974;21.722;2022-12-18T11:22:36;37.70;;;11.80;;
71298;SDS011;59083;47.974;21.722;2022-12-18T11:25:39;40.35;;;12.57;;
71298;SDS011;59083;47.974;21.722;2022-12-18T11:28:45;36.50;;;11.63;;
71298;SDS011;59083;47.974;21.722;2022-12-18T11:31:50;40.40;;;13.73;;
71298;SDS011;59083;47.974;21.722;2022-12-18T11:34:54;42.72;;;12.02;;
71298;SDS011;59083;47.974;21.722;2022-12-18T11:38:10;37.20;;;11.00;;
71298;SDS011;59083;47.974;21.722;2022-12-18T11:45:08;39.17;;;12.68;;
71298;SDS011;59083;47.974;21.722;2022-12-18T11:48:21;33.58;;;11.45;;
71298;SDS011;59083;47.974;21.722;2022-12-18T11:51:28;42.90;;;13.98;;
71298;SDS011;59083;47.974;21.722;2022-12-18T11:54:35;46.00;;;13.67;;
71298;SDS011;59083;47.974;21.722;2022-12-18T11:57:55;34.88;;;11.55;;
71298;SDS011;59083;47.974;21.722;2022-12-18T12:01:31;46.47;;;14.07;;
71298;SDS011;59083;47.974;21.722;2022-12-18T12:04:41;43.58;;;12.68;;
71298;SDS011;59083;47.974;21.722;2022-12-18T12:07:47;46.13;;;13.95;;
71298;SDS011;59083;47.974;21.722;2022-12-18T12:17:28;37.42;;;12.77;;
71298;SDS011;59083;47.974;21.722;2022-12-18T12:27:18;40.93;;;13.50;;
71298;SDS011;59083;47.974;21.722;2022-12-18T12:30:37;39.05;;;12.90;;
71298;SDS011;59083;47.974;21.722;2022-12-18T12:33:49;39.83;;;12.45;;
71298;SDS011;59083;47.974;21.722;2022-12-18T12:40:00;44.50;;;13.20;;
71298;SDS011;59083;47.974;21.722;2022-12-18T12:43:07;38.47;;;13.03;;
71298;SDS011;59083;47.974;21.722;2022-12-18T12:46:16;44.60;;;13.23;;
71298;SDS011;59083;47.974;21.722;2022-12-18T12:49:20;43.47;;;13.38;;
71298;SDS011;59083;47.974;21.722;2022-12-18T12:55:31;44.25;;;13.43;;
71298;SDS011;59083;47.974;21.722;2022-12-18T12:58:41;38.10;;;13.30;;
71298;SDS011;59083;47.974;21.722;2022-12-18T13:05:40;44.40;;;13.77;;
71298;SDS011;59083;47.974;21.722;2022-12-18T13:08:56;40.47;;;13.40;;
71298;SDS011;59083;47.974;21.722;2022-12-18T13:12:10;38.28;;;12.50;;
71298;SDS011;59083;47.974;21.722;2022-12-18T13:15:37;36.57;;;12.87;;
71298;SDS011;59083;47.974;21.722;2022-12-18T13:18:46;39.00;;;11.95;;
71298;SDS011;59083;47.974;21.722;2022-12-18T13:21:57;38.75;;;13.10;;
71298;SDS011;59083;47.974;21.722;2022-12-18T13:24:59;40.05;;;12.32;;
71298;SDS011;59083;47.974;21.722;2022-12-18T13:28:04;42.00;;;12.52;;
71298;SDS011;59083;47.974;21.722;2022-12-18T13:34:41;42.50;;;13.32;;
71298;SDS011;59083;47.974;21.722;2022-12-18T13:37:43;37.92;;;13.02;;
71298;SDS011;59083;47.974;21.722;2022-12-18T13:44:09;44.40;;;13.60;;
71298;SDS011;59083;47.974;21.722;2022-12-18T13:50:38;42.55;;;13.93;;
71298;SDS011;59083;47.974;21.722;2022-12-18T13:53:44;41.00;;;13.77;;
71298;SDS011;59083;47.974;21.722;2022-12-18T13:56:50;40.47;;;13.80;;
71298;SDS011;59083;47.974;21.722;2022-12-18T13:59:52;40.08;;;13.30;;
71298;SDS011;59083;47.974;21.722;2022-12-18T14:02:53;42.27;;;14.30;;
71298;SDS011;59083;47.974;21.722;2022-12-18T14:06:00;46.88;;;14.65;;
71298;SDS011;59083;47.974;21.722;2022-12-18T14:09:05;41.00;;;15.23;;
71298;SDS011;59083;47.974;21.722;2022-12-18T14:12:06;42.90;;;14.57;;
71298;SDS011;59083;47.974;21.722;2022-12-18T14:15:34;39.55;;;13.32;;
71298;SDS011;59083;47.974;21.722;2022-12-18T14:18:53;40.00;;;13.17;;
71298;SDS011;59083;47.974;21.722;2022-12-18T14:21:58;46.40;;;13.95;;
71298;SDS011;59083;47.974;21.722;2022-12-18T14:28:14;45.85;;;15.18;;
71298;SDS011;59083;47.974;21.722;2022-12-18T14:31:23;43.22;;;14.27;;
71298;SDS011;59083;47.974;21.722;2022-12-18T14:34:26;38.23;;;13.90;;
71298;SDS011;59083;47.974;21.722;2022-12-18T14:37:27;43.85;;;14.40;;
71298;SDS011;59083;47.974;21.722;2022-12-18T14:40:28;45.83;;;15.57;;
71298;SDS011;59083;47.974;21.722;2022-12-18T14:43:34;43.38;;;13.77;;
71298;SDS011;59083;47.974;21.722;2022-12-18T14:46:46;43.83;;;15.77;;
71298;SDS011;59083;47.974;21.722;2022-12-18T14:49:48;45.60;;;14.67;;
71298;SDS011;59083;47.974;21.722;2022-12-18T14:52:50;48.95;;;15.75;;
71298;SDS011;59083;47.974;21.722;2022-12-18T14:55:51;47.60;;;14.87;;
71298;SDS011;59083;47.974;21.722;2022-12-18T15:01:59;44.58;;;14.52;;
71298;SDS011;59083;47.974;21.722;2022-12-18T15:05:04;44.03;;;13.87;;
71298;SDS011;59083;47.974;21.722;2022-12-18T15:08:28;40.30;;;13.57;;
71298;SDS011;59083;47.974;21.722;2022-12-18T15:14:40;42.13;;;14.10;;
71298;SDS011;59083;47.974;21.722;2022-12-18T15:17:42;33.13;;;13.25;;
71298;SDS011;59083;47.974;21.722;2022-12-18T15:20:44;41.90;;;13.10;;
71298;SDS011;59083;47.974;21.722;2022-12-18T15:23:50;47.05;;;15.27;;
71298;SDS011;59083;47.974;21.722;2022-12-18T15:26:53;44.85;;;15.07;;
71298;SDS011;59083;47.974;21.722;2022-12-18T15:33:23;37.83;;;13.65;;
71298;SDS011;59083;47.974;21.722;2022-12-18T15:36:29;37.87;;;12.60;;
71298;SDS011;59083;47.974;21.722;2022-12-18T15:39:31;38.40;;;12.20;;
71298;SDS011;59083;47.974;21.722;2022-12-18T15:42:32;35.95;;;13.32;;
71298;SDS011;59083;47.974;21.722;2022-12-18T15:45:52;41.37;;;13.43;;
71298;SDS011;59083;47.974;21.722;2022-12-18T15:48:54;36.88;;;11.65;;
71298;SDS011;59083;47.974;21.722;2022-12-18T15:51:58;40.83;;;12.60;;
71298;SDS011;59083;47.974;21.722;2022-12-18T15:55:00;37.33;;;12.98;;
71298;SDS011;59083;47.974;21.722;2022-12-18T15:58:20;37.42;;;12.57;;
71298;SDS011;59083;47.974;21.722;2022-12-18T16:01:22;34.63;;;12.88;;
71298;SDS011;59083;47.974;21.722;2022-12-18T16:04:25;47.20;;;14.63;;
71298;SDS011;59083;47.974;21.722;2022-12-18T16:07:26;37.27;;;12.93;;
71298;SDS011;59083;47.974;21.722;2022-12-18T16:10:27;42.10;;;14.77;;
71298;SDS011;59083;47.974;21.722;2022-12-18T16:13:28;46.25;;;15.05;;
71298;SDS011;59083;47.974;21.722;2022-12-18T16:16:30;41.05;;;14.23;;
71298;SDS011;59083;47.974;21.722;2022-12-18T16:19:31;46.42;;;14.98;;
71298;SDS011;59083;47.974;21.722;2022-12-18T16:22:32;42.20;;;15.33;;
71298;SDS011;59083;47.974;21.722;2022-12-18T16:25:34;53.30;;;16.62;;
71298;SDS011;59083;47.974;21.722;2022-12-18T16:28:35;62.08;;;18.73;;
71298;SDS011;59083;47.974;21.722;2022-12-18T16:31:36;51.53;;;18.17;;
71298;SDS011;59083;47.974;21.722;2022-12-18T16:34:38;51.15;;;17.45;;
71298;SDS011;59083;47.974;21.722;2022-12-18T16:37:40;52.47;;;16.63;;
71298;SDS011;59083;47.974;21.722;2022-12-18T16:40:42;47.95;;;16.23;;
71298;SDS011;59083;47.974;21.722;2022-12-18T16:44:03;50.70;;;18.10;;
71298;SDS011;59083;47.974;21.722;2022-12-18T16:47:04;46.03;;;16.02;;
71298;SDS011;59083;47.974;21.722;2022-12-18T16:50:06;44.80;;;15.60;;
71298;SDS011;59083;47.974;21.722;2022-12-18T16:53:08;50.43;;;17.90;;
71298;SDS011;59083;47.974;21.722;2022-12-18T16:56:09;50.63;;;16.67;;
71298;SDS011;59083;47.974;21.722;2022-12-18T16:59:10;47.22;;;15.95;;
71298;SDS011;59083;47.974;21.722;2022-12-18T17:02:13;39.30;;;15.80;;
71298;SDS011;59083;47.974;21.722;2022-12-18T17:05:17;41.13;;;15.93;;
71298;SDS011;59083;47.974;21.722;2022-12-18T17:08:18;40.30;;;14.70;;
71298;SDS011;59083;47.974;21.722;2022-12-18T17:11:20;43.83;;;15.07;;
71298;SDS011;59083;47.974;21.722;2022-12-18T17:14:22;38.40;;;14.90;;
71298;SDS011;59083;47.974;21.722;2022-12-18T17:17:24;39.00;;;15.35;;
71298;SDS011;59083;47.974;21.722;2022-12-18T17:20:25;41.88;;;14.57;;
71298;SDS011;59083;47.974;21.722;2022-12-18T17:23:27;40.93;;;14.27;;
71298;SDS011;59083;47.974;21.722;2022-12-18T17:26:29;38.72;;;14.87;;
71298;SDS011;59083;47.974;21.722;2022-12-18T17:29:31;38.20;;;14.65;;
71298;SDS011;59083;47.974;21.722;2022-12-18T17:32:32;36.00;;;13.80;;
71298;SDS011;59083;47.974;21.722;2022-12-18T17:35:33;31.35;;;11.68;;
71298;SDS011;59083;47.974;21.722;2022-12-18T17:38:34;28.27;;;11.00;;
71298;SDS011;59083;47.974;21.722;2022-12-18T17:41:36;28.05;;;9.65;;
71298;SDS011;59083;47.974;21.722;2022-12-18T17:44:37;27.60;;;10.82;;
71298;SDS011;59083;47.974;21.722;2022-12-18T17:47:38;28.05;;;10.57;;
71298;SDS011;59083;47.974;21.722;2022-12-18T17:50:39;27.62;;;10.52;;
71298;SDS011;59083;47.974;21.722;2022-12-18T17:53:41;28.97;;;10.20;;
71298;SDS011;59083;47.974;21.722;2022-12-18T17:56:42;25.52;;;10.20;;
71298;SDS011;59083;47.974;21.722;2022-12-18T17:59:44;28.90;;;10.40;;
71298;SDS011;59083;47.974;21.722;2022-12-18T18:02:45;26.12;;;9.95;;
71298;SDS011;59083;47.974;21.722;2022-12-18T18:05:47;24.90;;;10.10;;
71298;SDS011;59083;47.974;21.722;2022-12-18T18:08:48;30.73;;;11.23;;
71298;SDS011;59083;47.974;21.722;2022-12-18T18:11:50;34.05;;;13.10;;
71298;SDS011;59083;47.974;21.722;2022-12-18T18:15:09;33.75;;;12.90;;
71298;SDS011;59083;47.974;21.722;2022-12-18T18:18:11;33.88;;;11.68;;
71298;SDS011;59083;47.974;21.722;2022-12-18T18:21:12;31.25;;;12.10;;
71298;SDS011;59083;47.974;21.722;2022-12-18T18:24:14;31.90;;;11.67;;
71298;SDS011;59083;47.974;21.722;2022-12-18T18:27:17;24.63;;;9.52;;
71298;SDS011;59083;47.974;21.722;2022-12-18T18:30:19;26.83;;;9.95;;
71298;SDS011;59083;47.974;21.722;2022-12-18T18:33:20;25.52;;;10.00;;
71298;SDS011;59083;47.974;21.722;2022-12-18T18:36:22;27.27;;;10.52;;
71298;SDS011;59083;47.974;21.722;2022-12-18T18:39:23;24.60;;;9.37;;
71298;SDS011;59083;47.974;21.722;2022-12-18T18:42:25;26.20;;;8.52;;
71298;SDS011;59083;47.974;21.722;2022-12-18T18:45:26;26.40;;;9.55;;
71298;SDS011;59083;47.974;21.722;2022-12-18T18:48:29;26.17;;;10.30;;
71298;SDS011;59083;47.974;21.722;2022-12-18T18:51:35;24.73;;;8.23;;
71298;SDS011;59083;47.974;21.722;2022-12-18T18:54:37;23.00;;;7.73;;
71298;SDS011;59083;47.974;21.722;2022-12-18T18:57:38;27.45;;;8.57;;
71298;SDS011;59083;47.974;21.722;2022-12-18T19:00:39;23.60;;;8.95;;
71298;SDS011;59083;47.974;21.722;2022-12-18T19:03:41;25.95;;;9.43;;
71298;SDS011;59083;47.974;21.722;2022-12-18T19:06:43;24.63;;;9.40;;
71298;SDS011;59083;47.974;21.722;2022-12-18T19:09:46;28.47;;;9.67;;
71298;SDS011;59083;47.974;21.722;2022-12-18T19:12:51;24.23;;;9.02;;
71298;SDS011;59083;47.974;21.722;2022-12-18T19:16:11;30.00;;;10.30;;
71298;SDS011;59083;47.974;21.722;2022-12-18T19:19:12;23.90;;;8.45;;
71298;SDS011;59083;47.974;21.722;2022-12-18T19:22:14;22.27;;;8.65;;
71298;SDS011;59083;47.974;21.722;2022-12-18T19:25:15;25.30;;;9.73;;
71298;SDS011;59083;47.974;21.722;2022-12-18T19:28:18;21.00;;;8.30;;
71298;SDS011;59083;47.974;21.722;2022-12-18T19:31:21;21.20;;;7.75;;
71298;SDS011;59083;47.974;21.722;2022-12-18T19:34:23;28.15;;;8.77;;
71298;SDS011;59083;47.974;21.722;2022-12-18T19:37:25;25.83;;;8.95;;